Time;durP1;ratioP1;P1;durP2;ratioP2;P2;SDS_P1;SDS_P2;PMS_P1;PMS_P2;Temp;Humidity;BMP_temperature;BMP_pressure;BME280_temperature;BME280_humidity;BME280_pressure;Samples;Min_cycle;Max_cycle;Signal;HPM_P1;HPM_P2
2022/01/24 00:00:55;;;;;;;;;;;18.60;46.60;;;;;;5084444;28;43040;-74
2022/01/24 00:03:20;;;;;;;;;;;18.60;46.60;;;;;;5085257;27;42901;-73
2022/01/24 00:05:46;;;;;;;;;;;18.60;46.60;;;;;;5085511;27;42947;-74
2022/01/24 00:08:11;;;;;;;;;;;18.60;46.60;;;;;;5083882;27;43410;-73
2022/01/24 00:10:39;;;;;;;;;;;18.70;46.70;;;;;;5084030;27;43010;-75
2022/01/24 00:16:20;;;;;;;;;;;18.60;46.60;;;;;;5082062;28;43021;-73
2022/01/24 00:26:49;;;;;;;;;;;18.60;46.80;;;;;;5084728;28;43195;-73
2022/01/24 00:29:16;;;;;;;;;;;18.60;46.70;;;;;;5085344;27;42861;-73
2022/01/24 00:31:41;;;;;;;;;;;18.60;46.70;;;;;;5085152;27;42933;-74
2022/01/24 00:34:07;;;;;;;;;;;18.60;46.80;;;;;;5085278;28;43847;-76
2022/01/24 00:36:32;;;;;;;;;;;18.60;46.80;;;;;;5085090;27;42936;-73
2022/01/24 00:38:58;;;;;;;;;;;18.60;46.80;;;;;;5085694;28;42926;-73
2022/01/24 00:41:24;;;;;;;;;;;18.60;46.80;;;;;;5086803;27;42994;-73
2022/01/24 00:46:42;;;;;;;;;;;18.60;46.80;;;;;;5075313;28;42991;-74
2022/01/24 00:57:02;;;;;;;;;;;18.60;46.90;;;;;;5086516;28;43221;-74
2022/01/24 00:59:27;;;;;;;;;;;18.60;46.90;;;;;;5086088;27;43533;-73
2022/01/24 01:01:53;;;;;;;;;;;18.60;46.80;;;;;;5085719;27;42935;-73
2022/01/24 01:04:22;;;;;;;;;;;18.60;46.90;;;;;;5086063;27;42981;-72
2022/01/24 01:06:49;;;;;;;;;;;18.60;46.90;;;;;;5084723;27;42940;-73
2022/01/24 01:20:14;;;;;;;;;;;18.60;46.80;;;;;;5085154;28;43031;-73
2022/01/24 01:22:40;;;;;;;;;;;18.60;46.80;;;;;;5084872;27;43043;-73
2022/01/24 01:25:05;;;;;;;;;;;18.60;46.80;;;;;;5087812;28;42937;-74
2022/01/24 01:27:40;;;;;;;;;;;18.60;46.80;;;;;;5088652;27;43065;-74
2022/01/24 01:30:16;;;;;;;;;;;18.60;46.70;;;;;;5088570;27;44785;-72
2022/01/24 01:35:44;;;;;;;;;;;18.60;46.80;;;;;;5088664;27;43339;-73
2022/01/24 01:56:51;;;;;;;;;;;18.60;46.70;;;;;;5087574;27;42851;-73
2022/01/24 01:59:16;;;;;;;;;;;18.60;46.60;;;;;;5088349;27;42776;-73
2022/01/24 02:01:42;;;;;;;;;;;18.60;46.60;;;;;;5088096;27;43519;-73
2022/01/24 02:04:08;;;;;;;;;;;18.60;46.70;;;;;;5088430;27;42964;-73
2022/01/24 02:06:33;;;;;;;;;;;18.60;46.70;;;;;;5087766;27;42987;-73
2022/01/24 02:09:00;;;;;;;;;;;18.60;46.80;;;;;;5088167;27;42895;-74
2022/01/24 02:11:25;;;;;;;;;;;18.60;46.70;;;;;;5088257;27;42978;-73
2022/01/24 02:13:51;;;;;;;;;;;18.60;46.70;;;;;;5087977;27;42966;-73
2022/01/24 02:16:39;;;;;;;;;;;18.60;46.60;;;;;;5088263;27;42959;-74
2022/01/24 02:19:12;;;;;;;;;;;18.60;46.60;;;;;;5086775;28;42939;-73
2022/01/24 02:24:22;;;;;;;;;;;18.60;46.60;;;;;;5088747;28;42972;-73
2022/01/24 02:26:54;;;;;;;;;;;18.60;46.70;;;;;;5086996;27;44711;-73
2022/01/24 02:29:32;;;;;;;;;;;18.50;46.50;;;;;;5087845;27;42810;-73
2022/01/24 02:31:58;;;;;;;;;;;18.60;46.50;;;;;;5088561;27;44334;-73
2022/01/24 02:34:33;;;;;;;;;;;18.60;46.60;;;;;;5088028;27;42828;-73
2022/01/24 02:37:00;;;;;;;;;;;18.50;46.50;;;;;;5088787;27;42822;-73
2022/01/24 02:50:22;;;;;;;;;;;18.50;46.50;;;;;;5087897;28;42985;-73
2022/01/24 02:52:48;;;;;;;;;;;18.60;46.50;;;;;;5087207;27;43410;-73
2022/01/24 02:55:14;;;;;;;;;;;18.50;46.60;;;;;;5086995;27;42812;-73
2022/01/24 02:57:39;;;;;;;;;;;18.50;46.50;;;;;;5087270;27;42936;-73
2022/01/24 03:00:05;;;;;;;;;;;18.50;46.50;;;;;;5087691;27;42825;-73
2022/01/24 03:02:31;;;;;;;;;;;18.50;46.50;;;;;;5086980;27;43672;-74
2022/01/24 03:04:57;;;;;;;;;;;18.50;46.60;;;;;;5087393;28;42951;-73
2022/01/24 03:07:23;;;;;;;;;;;18.50;46.50;;;;;;5087631;27;43105;-73
2022/01/24 03:09:50;;;;;;;;;;;18.50;46.40;;;;;;5087385;27;42904;-73
2022/01/24 03:12:26;;;;;;;;;;;18.50;46.30;;;;;;5086031;27;43536;-74
2022/01/24 03:14:52;;;;;;;;;;;18.50;46.50;;;;;;5086644;27;43046;-73
2022/01/24 03:17:17;;;;;;;;;;;18.50;46.40;;;;;;5087745;28;44062;-72
2022/01/24 03:19:43;;;;;;;;;;;18.50;46.40;;;;;;5086253;27;43043;-72
2022/01/24 03:22:11;;;;;;;;;;;18.50;46.20;;;;;;5088845;27;42943;-73
2022/01/24 03:24:36;;;;;;;;;;;18.50;46.40;;;;;;5087732;27;43041;-73
2022/01/24 03:27:02;;;;;;;;;;;18.50;46.50;;;;;;5087548;27;43615;-72
2022/01/24 03:29:28;;;;;;;;;;;18.50;46.30;;;;;;5086153;27;43014;-73
2022/01/24 03:31:53;;;;;;;;;;;18.50;46.30;;;;;;5088518;27;43719;-72
2022/01/24 03:34:19;;;;;;;;;;;18.50;46.30;;;;;;5087619;28;42894;-73
2022/01/24 03:36:44;;;;;;;;;;;18.50;46.40;;;;;;5087525;28;43517;-72
2022/01/24 03:39:10;;;;;;;;;;;18.50;46.30;;;;;;5087376;28;42971;-73
2022/01/24 03:41:36;;;;;;;;;;;18.50;46.20;;;;;;5085527;27;44361;-74
2022/01/24 03:44:04;;;;;;;;;;;18.50;46.30;;;;;;5086024;27;43003;-74
2022/01/24 03:46:46;;;;;;;;;;;18.50;46.10;;;;;;5084503;27;43187;-74
2022/01/24 03:49:44;;;;;;;;;;;18.50;46.00;;;;;;5069668;28;43010;-74
2022/01/24 03:51:57;;;;;;;;;;;18.50;45.90;;;;;;5086877;27;42970;-72
2022/01/24 03:54:22;;;;;;;;;;;18.60;46.00;;;;;;5086827;28;42968;-74
2022/01/24 03:56:48;;;;;;;;;;;18.50;46.00;;;;;;5086012;27;42987;-74
2022/01/24 03:59:13;;;;;;;;;;;18.40;46.00;;;;;;5065699;28;42913;-75
2022/01/24 04:01:39;;;;;;;;;;;18.50;46.00;;;;;;5083586;28;43780;-74
2022/01/24 04:04:04;;;;;;;;;;;18.40;46.00;;;;;;5086236;28;42847;-74
2022/01/24 04:06:30;;;;;;;;;;;18.50;46.10;;;;;;5085440;27;43601;-73
2022/01/24 04:08:55;;;;;;;;;;;18.50;45.90;;;;;;5085346;27;42910;-74
2022/01/24 04:11:21;;;;;;;;;;;18.40;45.90;;;;;;5086049;28;43517;-73
2022/01/24 04:13:56;;;;;;;;;;;18.40;45.90;;;;;;5086263;27;42778;-73
2022/01/24 04:16:31;;;;;;;;;;;18.40;45.90;;;;;;5085865;27;43531;-73
2022/01/24 04:21:18;;;;;;;;;;;18.40;45.90;;;;;;5084863;27;42912;-74
2022/01/24 04:21:47;;;;;;;;;;;18.50;46.00;;;;;;5084802;27;42992;-73
2022/01/24 04:24:18;;;;;;;;;;;18.40;45.90;;;;;;5086144;28;42855;-73
2022/01/24 04:26:44;;;;;;;;;;;18.40;45.90;;;;;;5073809;27;43723;-73
2022/01/24 04:29:09;;;;;;;;;;;18.40;45.90;;;;;;5079666;28;42941;-73
2022/01/24 04:31:35;;;;;;;;;;;18.40;45.90;;;;;;5085840;28;43527;-74
2022/01/24 04:34:01;;;;;;;;;;;18.40;45.90;;;;;;5077407;28;42962;-73
2022/01/24 04:36:27;;;;;;;;;;;18.40;45.90;;;;;;5066397;27;42972;-73
2022/01/24 04:38:53;;;;;;;;;;;18.40;45.90;;;;;;5077280;28;42887;-73
2022/01/24 04:41:25;;;;;;;;;;;18.40;45.90;;;;;;5085493;28;43228;-74
2022/01/24 04:57:02;;;;;;;;;;;18.40;45.90;;;;;;5084814;27;42904;-74
2022/01/24 04:59:28;;;;;;;;;;;18.30;46.40;;;;;;5085111;27;42832;-74
2022/01/24 05:01:53;;;;;;;;;;;18.40;45.90;;;;;;5080414;27;43487;-74
2022/01/24 05:04:19;;;;;;;;;;;18.40;46.00;;;;;;5081293;28;42912;-74
2022/01/24 05:06:44;;;;;;;;;;;18.30;45.90;;;;;;5076608;27;43550;-75
2022/01/24 05:09:10;;;;;;;;;;;18.30;45.90;;;;;;5083582;27;42948;-74
2022/01/24 05:25:24;;;;;;;;;;;18.30;46.00;;;;;;5075890;28;43076;-74
2022/01/24 05:27:49;;;;;;;;;;;18.30;46.00;;;;;;5079002;28;42928;-74
2022/01/24 05:30:16;;;;;;;;;;;18.30;45.90;;;;;;5082716;27;43019;-74
2022/01/24 05:32:42;;;;;;;;;;;18.30;46.00;;;;;;5079289;27;42849;-76
2022/01/24 05:35:08;;;;;;;;;;;15.90;44.80;;;;;;5081467;27;43203;-75
2022/01/24 05:37:33;;;;;;;;;;;18.30;46.00;;;;;;5086245;27;42959;-74
2022/01/24 05:39:59;;;;;;;;;;;18.30;46.00;;;;;;5087121;28;42931;-74
2022/01/24 05:42:25;;;;;;;;;;;18.30;46.60;;;;;;5086194;27;43321;-74
2022/01/24 05:44:52;;;;;;;;;;;18.30;46.50;;;;;;5086587;28;42992;-75
2022/01/24 05:47:17;;;;;;;;;;;18.30;46.40;;;;;;5086118;27;42934;-74
2022/01/24 05:49:43;;;;;;;;;;;18.30;45.70;;;;;;5083689;28;42981;-73
2022/01/24 05:52:09;;;;;;;;;;;18.30;45.80;;;;;;5082889;27;42911;-74
2022/01/24 05:54:36;;;;;;;;;;;18.30;45.80;;;;;;5082905;28;43050;-74
2022/01/24 05:57:02;;;;;;;;;;;18.20;45.90;;;;;;5082708;27;44345;-74
2022/01/24 05:59:28;;;;;;;;;;;18.30;46.00;;;;;;5079903;28;43018;-74
2022/01/24 06:01:53;;;;;;;;;;;18.30;46.10;;;;;;5077270;27;42936;-74
2022/01/24 06:04:19;;;;;;;;;;;18.20;43.00;;;;;;5080690;27;42928;-73
2022/01/24 06:06:44;;;;;;;;;;;18.20;45.10;;;;;;5073461;27;43014;-75
2022/01/24 06:09:10;;;;;;;;;;;18.30;46.10;;;;;;5077562;28;42940;-74
2022/01/24 06:11:35;;;;;;;;;;;18.30;45.80;;;;;;5084935;27;43512;-74
2022/01/24 06:14:03;;;;;;;;;;;18.30;45.80;;;;;;5088993;27;43011;-74
2022/01/24 06:16:29;;;;;;;;;;;18.30;45.60;;;;;;5088113;27;43151;-74
2022/01/24 06:18:55;;;;;;;;;;;18.30;47.10;;;;;;5063979;28;43164;-74
2022/01/24 06:21:20;;;;;;;;;;;18.30;47.00;;;;;;5071694;28;43321;-73
2022/01/24 06:23:46;;;;;;;;;;;18.20;47.30;;;;;;5086880;28;42891;-73
2022/01/24 06:26:11;;;;;;;;;;;18.20;47.10;;;;;;5086334;28;43593;-74
2022/01/24 06:28:37;;;;;;;;;;;18.10;46.70;;;;;;5086623;27;43030;-74
2022/01/24 06:31:03;;;;;;;;;;;18.10;46.40;;;;;;5087080;27;42933;-73
2022/01/24 06:33:29;;;;;;;;;;;18.10;46.10;;;;;;5085781;27;42915;-74
2022/01/24 06:35:54;;;;;;;;;;;18.00;45.50;;;;;;5086454;27;43150;-74
2022/01/24 06:38:20;;;;;;;;;;;18.00;45.50;;;;;;5086612;28;42875;-75
2022/01/24 06:40:45;;;;;;;;;;;18.00;45.60;;;;;;5086727;28;43406;-73
2022/01/24 06:43:11;;;;;;;;;;;18.00;45.40;;;;;;5086102;28;42927;-74
2022/01/24 06:45:36;;;;;;;;;;;17.90;45.20;;;;;;5084832;28;44727;-74
2022/01/24 06:48:02;;;;;;;;;;;18.00;45.00;;;;;;5086380;27;43047;-73
2022/01/24 06:50:28;;;;;;;;;;;18.00;44.90;;;;;;5085643;27;43808;-73
2022/01/24 06:52:53;;;;;;;;;;;18.00;44.50;;;;;;5086562;27;42879;-73
2022/01/24 06:55:19;;;;;;;;;;;17.90;44.30;;;;;;5086636;28;43537;-74
2022/01/24 06:57:45;;;;;;;;;;;18.00;44.30;;;;;;5086545;27;42861;-73
2022/01/24 07:00:11;;;;;;;;;;;18.00;44.60;;;;;;5086958;28;43981;-74
2022/01/24 07:02:36;;;;;;;;;;;18.00;44.50;;;;;;5087729;27;42957;-74
2022/01/24 07:05:02;;;;;;;;;;;17.90;44.10;;;;;;5088122;27;42812;-73
2022/01/24 07:07:28;;;;;;;;;;;17.90;44.00;;;;;;5087882;27;42972;-74
2022/01/24 07:09:54;;;;;;;;;;;17.90;43.80;;;;;;5086341;27;43627;-73
2022/01/24 07:12:20;;;;;;;;;;;17.90;43.70;;;;;;5087587;27;42948;-74
2022/01/24 07:14:46;;;;;;;;;;;17.90;43.50;;;;;;5087329;27;43660;-73
2022/01/24 07:17:55;;;;;;;;;;;17.90;43.50;;;;;;5087540;28;43065;-73
2022/01/24 07:19:57;;;;;;;;;;;17.80;43.50;;;;;;5086770;27;42805;-73
2022/01/24 07:22:22;;;;;;;;;;;17.80;43.20;;;;;;5087478;28;42789;-73
2022/01/24 07:24:48;;;;;;;;;;;17.80;43.30;;;;;;5087263;27;42829;-73
2022/01/24 07:27:13;;;;;;;;;;;17.80;43.20;;;;;;5087045;28;42976;-73
2022/01/24 07:29:39;;;;;;;;;;;17.80;43.00;;;;;;5086614;27;43640;-74
2022/01/24 07:32:05;;;;;;;;;;;17.80;43.00;;;;;;5086369;28;43027;-73
2022/01/24 07:34:30;;;;;;;;;;;17.80;42.90;;;;;;5086142;27;42950;-73
2022/01/24 07:36:57;;;;;;;;;;;17.80;42.70;;;;;;5086459;27;42960;-73
2022/01/24 07:39:23;;;;;;;;;;;17.80;42.70;;;;;;5086401;28;42886;-73
2022/01/24 07:41:50;;;;;;;;;;;17.80;42.70;;;;;;5086834;27;43173;-74
2022/01/24 07:44:16;;;;;;;;;;;17.80;42.50;;;;;;5086731;27;42980;-73
2022/01/24 07:46:42;;;;;;;;;;;17.80;42.60;;;;;;5090173;27;43046;-74
2022/01/24 07:49:10;;;;;;;;;;;17.80;42.60;;;;;;5089504;28;43501;-74
2022/01/24 07:51:36;;;;;;;;;;;17.80;42.40;;;;;;5089671;27;43184;-74
2022/01/24 07:54:02;;;;;;;;;;;17.80;42.60;;;;;;5088510;27;43557;-73
2022/01/24 07:56:27;;;;;;;;;;;17.80;42.50;;;;;;5089318;27;42945;-74
2022/01/24 07:58:53;;;;;;;;;;;17.80;42.40;;;;;;5088228;28;43886;-73
2022/01/24 08:01:19;;;;;;;;;;;17.80;42.50;;;;;;5088543;27;43299;-73
2022/01/24 08:03:45;;;;;;;;;;;17.80;42.40;;;;;;5088084;28;42940;-73
2022/01/24 08:06:10;;;;;;;;;;;17.80;42.60;;;;;;5088357;27;43075;-73
2022/01/24 08:08:36;;;;;;;;;;;17.80;42.70;;;;;;5088623;28;43270;-73
2022/01/24 08:11:01;;;;;;;;;;;17.80;42.70;;;;;;5087932;28;42966;-74
2022/01/24 08:13:27;;;;;;;;;;;17.80;42.70;;;;;;5088406;27;43451;-73
2022/01/24 08:15:54;;;;;;;;;;;17.80;42.70;;;;;;5085463;28;60169;-73
2022/01/24 08:18:20;;;;;;;;;;;17.80;42.60;;;;;;5088574;27;42921;-73
2022/01/24 08:20:45;;;;;;;;;;;17.80;42.80;;;;;;5088994;27;42937;-73
2022/01/24 08:23:11;;;;;;;;;;;17.80;42.90;;;;;;5087944;27;42898;-75
2022/01/24 08:25:37;;;;;;;;;;;17.80;43.00;;;;;;5087863;27;42759;-74
2022/01/24 08:28:03;;;;;;;;;;;17.90;43.20;;;;;;5087156;27;43611;-74
2022/01/24 08:30:28;;;;;;;;;;;17.80;42.80;;;;;;5087664;27;42997;-73
2022/01/24 08:32:54;;;;;;;;;;;17.80;43.00;;;;;;5087201;27;42939;-73
2022/01/24 08:35:20;;;;;;;;;;;17.90;43.20;;;;;;5087216;27;42909;-73
2022/01/24 08:37:46;;;;;;;;;;;17.90;43.30;;;;;;5087148;27;42918;-73
2022/01/24 08:40:20;;;;;;;;;;;17.80;43.20;;;;;;5086696;27;42972;-74
2022/01/24 08:42:55;;;;;;;;;;;17.80;43.30;;;;;;5086000;27;43378;-73
2022/01/24 08:48:05;;;;;;;;;;;17.80;43.40;;;;;;5085983;28;43144;-73
2022/01/24 08:50:30;;;;;;;;;;;17.80;43.40;;;;;;5085884;27;42853;-74
2022/01/24 08:52:59;;;;;;;;;;;17.80;43.40;;;;;;5085687;27;42936;-73
2022/01/24 08:55:28;;;;;;;;;;;17.80;43.40;;;;;;5085567;27;42762;-74
2022/01/24 08:57:55;;;;;;;;;;;17.80;43.40;;;;;;5084925;27;42843;-74
2022/01/24 09:00:20;;;;;;;;;;;17.90;43.40;;;;;;5085357;27;42942;-74
2022/01/24 09:02:46;;;;;;;;;;;17.80;43.40;;;;;;5085204;28;42887;-73
2022/01/24 09:05:11;;;;;;;;;;;17.80;43.40;;;;;;5085494;27;43201;-73
2022/01/24 09:07:37;;;;;;;;;;;17.80;43.50;;;;;;5085889;27;42758;-73
2022/01/24 09:10:04;;;;;;;;;;;17.80;43.30;;;;;;5086349;27;42868;-73
2022/01/24 09:12:30;;;;;;;;;;;17.80;43.30;;;;;;5085337;27;42823;-73
2022/01/24 09:14:55;;;;;;;;;;;17.80;43.30;;;;;;5085925;27;42911;-73
2022/01/24 09:17:21;;;;;;;;;;;17.80;43.40;;;;;;5085702;27;43332;-73
2022/01/24 09:19:46;;;;;;;;;;;17.80;43.30;;;;;;5085486;27;42836;-73
2022/01/24 09:22:12;;;;;;;;;;;17.80;43.40;;;;;;5085360;27;42951;-73
2022/01/24 09:24:38;;;;;;;;;;;17.80;43.50;;;;;;5084934;28;42979;-73
2022/01/24 09:27:03;;;;;;;;;;;17.80;43.30;;;;;;5085141;27;43050;-73
2022/01/24 09:29:29;;;;;;;;;;;17.80;43.30;;;;;;5085176;28;42870;-73
2022/01/24 09:31:54;;;;;;;;;;;17.80;43.30;;;;;;5085239;28;42993;-73
2022/01/24 09:34:20;;;;;;;;;;;17.80;43.30;;;;;;5085535;27;42932;-73
2022/01/24 09:36:49;;;;;;;;;;;17.80;43.30;;;;;;5085482;27;43619;-73
2022/01/24 09:39:15;;;;;;;;;;;17.80;43.20;;;;;;5084770;27;42864;-74
2022/01/24 09:41:41;;;;;;;;;;;17.80;43.20;;;;;;5084746;27;43456;-73
2022/01/24 09:44:06;;;;;;;;;;;17.80;43.00;;;;;;5086333;27;42964;-74
2022/01/24 09:46:34;;;;;;;;;;;17.80;43.10;;;;;;5087993;27;43368;-74
2022/01/24 09:48:59;;;;;;;;;;;17.80;43.10;;;;;;5088851;27;42771;-74
2022/01/24 09:51:25;;;;;;;;;;;17.80;43.00;;;;;;5088755;27;43695;-74
2022/01/24 09:53:51;;;;;;;;;;;17.80;43.10;;;;;;5088709;27;43002;-73
2022/01/24 09:56:17;;;;;;;;;;;17.80;43.00;;;;;;5088573;27;43054;-74
2022/01/24 09:58:43;;;;;;;;;;;17.80;42.90;;;;;;5088068;27;42950;-73
2022/01/24 10:01:09;;;;;;;;;;;17.80;43.00;;;;;;5088410;27;42775;-74
2022/01/24 10:03:35;;;;;;;;;;;17.80;43.00;;;;;;5088131;27;42980;-73
2022/01/24 10:06:00;;;;;;;;;;;17.80;43.10;;;;;;5087759;27;43373;-73
2022/01/24 10:08:26;;;;;;;;;;;17.80;43.00;;;;;;5087840;27;42912;-73
2022/01/24 10:10:56;;;;;;;;;;;17.80;43.00;;;;;;5088202;27;42931;-73
2022/01/24 10:19:17;;;;;;;;;;;17.80;43.00;;;;;;5088855;28;42835;-73
2022/01/24 10:21:43;;;;;;;;;;;17.70;43.10;;;;;;5087865;27;43484;-73
2022/01/24 10:24:28;;;;;;;;;;;17.80;43.10;;;;;;5089170;27;43082;-74
2022/01/24 10:27:11;;;;;;;;;;;17.80;43.00;;;;;;5088360;27;42991;-74
2022/01/24 10:29:46;;;;;;;;;;;17.80;43.00;;;;;;5089660;28;42913;-73
2022/01/24 10:32:27;;;;;;;;;;;17.80;43.00;;;;;;5087655;27;43719;-73
2022/01/24 10:34:52;;;;;;;;;;;17.70;43.00;;;;;;5089006;28;42916;-74
2022/01/24 10:37:20;;;;;;;;;;;17.70;43.00;;;;;;5087807;27;43755;-73
2022/01/24 10:39:55;;;;;;;;;;;17.80;43.60;;;;;;5087606;27;43463;-73
2022/01/24 10:44:48;;;;;;;;;;;17.80;43.00;;;;;;5087664;28;42864;-74
2022/01/24 10:47:14;;;;;;;;;;;17.80;42.90;;;;;;5087527;27;42895;-75
2022/01/24 10:49:40;;;;;;;;;;;17.70;43.00;;;;;;5088124;27;43017;-74
2022/01/24 10:52:10;;;;;;;;;;;17.80;43.00;;;;;;5088412;27;43348;-73
2022/01/24 10:54:35;;;;;;;;;;;17.70;43.00;;;;;;5087310;27;42944;-74
2022/01/24 10:57:01;;;;;;;;;;;17.70;43.10;;;;;;5089097;27;43523;-73
2022/01/24 10:59:26;;;;;;;;;;;17.70;43.00;;;;;;5088087;28;42925;-73
2022/01/24 11:01:56;;;;;;;;;;;17.70;43.00;;;;;;5087516;27;43672;-74
2022/01/24 11:04:24;;;;;;;;;;;17.80;42.90;;;;;;5086965;28;42979;-74
2022/01/24 11:06:50;;;;;;;;;;;17.70;42.90;;;;;;5088086;27;43049;-73
2022/01/24 11:09:18;;;;;;;;;;;17.70;42.70;;;;;;5087347;27;42832;-75
2022/01/24 11:11:44;;;;;;;;;;;17.70;42.80;;;;;;5088569;27;42995;-73
2022/01/24 11:14:13;;;;;;;;;;;17.70;42.90;;;;;;5087772;27;42924;-73
2022/01/24 11:16:39;;;;;;;;;;;17.70;43.00;;;;;;5086979;27;44325;-74
2022/01/24 11:20:11;;;;;;;;;;;17.80;43.00;;;;;;5087441;27;42995;-73
2022/01/24 11:22:05;;;;;;;;;;;17.70;42.70;;;;;;5082523;27;43538;-73
2022/01/24 11:24:41;;;;;;;;;;;17.70;43.00;;;;;;5087179;27;43061;-74
2022/01/24 11:27:08;;;;;;;;;;;17.70;42.90;;;;;;5087452;27;42868;-73
2022/01/24 11:29:34;;;;;;;;;;;17.70;42.80;;;;;;5087687;27;42971;-73
2022/01/24 11:31:59;;;;;;;;;;;17.70;42.90;;;;;;5087102;27;43256;-73
2022/01/24 11:34:31;;;;;;;;;;;17.70;42.80;;;;;;5087822;27;42964;-73
2022/01/24 11:36:57;;;;;;;;;;;17.70;42.70;;;;;;5086222;28;43594;-74
2022/01/24 11:39:23;;;;;;;;;;;17.70;42.90;;;;;;5086750;27;43098;-73
2022/01/24 11:41:49;;;;;;;;;;;17.70;42.90;;;;;;5086872;27;42742;-75
2022/01/24 11:44:17;;;;;;;;;;;17.70;42.70;;;;;;5085835;28;43032;-74
2022/01/24 11:46:49;;;;;;;;;;;17.70;42.60;;;;;;5086706;28;43440;-74
2022/01/24 11:49:24;;;;;;;;;;;17.70;42.80;;;;;;5087172;27;42738;-75
2022/01/24 11:51:51;;;;;;;;;;;17.70;42.70;;;;;;5086579;27;43487;-74
2022/01/24 11:55:00;;;;;;;;;;;17.70;42.60;;;;;;5086570;27;43017;-74
2022/01/24 11:57:40;;;;;;;;;;;17.70;42.70;;;;;;5085840;28;43593;-73
2022/01/24 12:00:05;;;;;;;;;;;17.70;42.50;;;;;;5085973;27;43038;-73
2022/01/24 12:02:41;;;;;;;;;;;17.70;42.70;;;;;;5087177;27;43378;-73
2022/01/24 12:05:12;;;;;;;;;;;17.70;42.50;;;;;;5086103;27;42932;-73
2022/01/24 12:07:44;;;;;;;;;;;17.70;42.60;;;;;;5085127;27;42877;-73
2022/01/24 12:10:26;;;;;;;;;;;17.70;42.60;;;;;;5086539;27;43200;-73
2022/01/24 12:12:55;;;;;;;;;;;17.70;42.60;;;;;;5086262;27;43034;-73
2022/01/24 12:15:39;;;;;;;;;;;17.70;42.60;;;;;;5086171;27;42798;-73
2022/01/24 12:18:05;;;;;;;;;;;17.70;42.50;;;;;;5085389;27;44072;-73
2022/01/24 12:20:31;;;;;;;;;;;17.60;42.40;;;;;;5086200;28;42893;-73
2022/01/24 12:22:57;;;;;;;;;;;17.70;42.40;;;;;;5085854;28;43734;-73
2022/01/24 12:25:41;;;;;;;;;;;17.60;42.50;;;;;;5085823;27;43004;-73
2022/01/24 12:28:16;;;;;;;;;;;17.70;42.60;;;;;;5085542;27;42837;-73
2022/01/24 12:31:00;;;;;;;;;;;17.60;42.50;;;;;;5086723;27;43027;-73
2022/01/24 12:33:34;;;;;;;;;;;17.60;42.40;;;;;;5085839;27;43501;-73
2022/01/24 12:36:01;;;;;;;;;;;17.50;41.50;;;;;;5085428;28;43017;-74
2022/01/24 12:38:38;;;;;;;;;;;17.60;41.60;;;;;;5085486;27;43069;-73
2022/01/24 12:41:31;;;;;;;;;;;17.60;41.70;;;;;;5085878;27;42840;-73
2022/01/24 12:46:44;;;;;;;;;;;17.10;37.60;;;;;;5069784;27;43144;-74
2022/01/24 12:49:09;;;;;;;;;;;16.60;37.00;;;;;;5085671;27;43674;-74
2022/01/24 12:51:36;;;;;;;;;;;16.40;37.60;;;;;;5074832;27;42966;-75
2022/01/24 12:54:02;;;;;;;;;;;16.50;38.00;;;;;;5076432;27;42866;-77
2022/01/24 12:56:29;;;;;;;;;;;14.90;36.70;;;;;;5065184;28;42858;-74
2022/01/24 12:58:55;;;;;;;;;;;16.50;37.50;;;;;;5064447;28;44185;-74
2022/01/24 13:01:20;;;;;;;;;;;16.60;37.50;;;;;;5063081;28;43147;-75
2022/01/24 13:03:50;;;;;;;;;;;16.60;37.40;;;;;;5064147;28;42830;-74
2022/01/24 13:06:16;;;;;;;;;;;16.70;37.40;;;;;;5064933;28;42850;-75
2022/01/24 13:08:52;;;;;;;;;;;16.60;37.40;;;;;;5064975;28;43751;-74
2022/01/24 13:11:17;;;;;;;;;;;16.40;37.20;;;;;;5065273;28;42758;-74
2022/01/24 13:14:03;;;;;;;;;;;16.10;37.40;;;;;;5064782;28;42898;-75
2022/01/24 13:22:28;;;;;;;;;;;16.00;38.10;;;;;;5072301;28;42857;-74
2022/01/24 13:25:01;;;;;;;;;;;15.90;38.20;;;;;;5071235;28;43683;-74
2022/01/24 13:27:47;;;;;;;;;;;15.80;38.30;;;;;;5071402;28;42951;-75
2022/01/24 13:30:14;;;;;;;;;;;15.80;38.20;;;;;;5071804;28;43517;-75
2022/01/24 13:32:41;;;;;;;;;;;15.50;38.50;;;;;;5070277;27;42901;-74
2022/01/24 13:35:13;;;;;;;;;;;15.70;38.50;;;;;;5070516;27;43087;-74
2022/01/24 13:37:39;;;;;;;;;;;15.80;38.60;;;;;;5071124;28;42913;-74
2022/01/24 13:40:05;;;;;;;;;;;15.90;38.30;;;;;;5071459;28;42935;-74
2022/01/24 13:42:34;;;;;;;;;;;16.00;38.20;;;;;;5071515;28;42982;-74
2022/01/24 13:44:59;;;;;;;;;;;15.90;38.20;;;;;;5087018;27;42940;-74
2022/01/24 13:47:25;;;;;;;;;;;15.90;38.40;;;;;;5084657;28;42991;-74
2022/01/24 13:49:50;;;;;;;;;;;16.10;38.40;;;;;;5080006;28;43088;-73
2022/01/24 13:52:18;;;;;;;;;;;16.30;38.30;;;;;;5081033;28;43780;-73
2022/01/24 13:54:44;;;;;;;;;;;16.40;38.40;;;;;;5084887;28;42933;-74
2022/01/24 13:57:15;;;;;;;;;;;16.50;39.00;;;;;;5090925;27;43059;-74
2022/01/24 13:59:42;;;;;;;;;;;16.60;38.60;;;;;;5085175;27;42956;-75
2022/01/24 14:02:14;;;;;;;;;;;16.70;38.70;;;;;;5077882;28;43030;-74
2022/01/24 14:04:46;;;;;;;;;;;16.80;39.00;;;;;;5081744;28;42841;-74
2022/01/24 14:07:11;;;;;;;;;;;16.70;39.00;;;;;;5071261;28;42948;-74
2022/01/24 14:09:39;;;;;;;;;;;16.80;39.10;;;;;;5070710;28;42933;-73
2022/01/24 14:12:06;;;;;;;;;;;16.80;39.10;;;;;;5070559;28;43004;-74
2022/01/24 14:14:45;;;;;;;;;;;16.80;39.30;;;;;;5071309;28;42892;-74
2022/01/24 14:19:42;;;;;;;;;;;16.90;39.50;;;;;;5068977;28;42906;-73
2022/01/24 14:22:10;;;;;;;;;;;16.90;39.40;;;;;;5070028;28;42933;-74
2022/01/24 14:24:42;;;;;;;;;;;16.90;39.60;;;;;;5070389;28;43666;-73
2022/01/24 14:27:08;;;;;;;;;;;16.90;39.60;;;;;;5070150;28;43269;-73
2022/01/24 14:29:38;;;;;;;;;;;16.90;39.80;;;;;;5066744;28;42978;-74
2022/01/24 14:32:10;;;;;;;;;;;17.00;39.80;;;;;;5066953;28;43207;-74
2022/01/24 14:34:36;;;;;;;;;;;17.00;39.90;;;;;;5066125;28;42905;-74
2022/01/24 14:37:05;;;;;;;;;;;17.00;40.00;;;;;;5066287;28;43056;-73
2022/01/24 14:39:31;;;;;;;;;;;17.00;40.00;;;;;;5066435;28;42896;-73
2022/01/24 14:41:57;;;;;;;;;;;17.10;40.10;;;;;;5067211;28;42864;-74
2022/01/24 14:47:07;;;;;;;;;;;17.10;40.30;;;;;;5066100;28;42897;-73
2022/01/24 14:49:35;;;;;;;;;;;17.10;40.30;;;;;;5065960;28;42936;-74
2022/01/24 14:52:05;;;;;;;;;;;17.10;40.40;;;;;;5069415;28;42832;-74
2022/01/24 14:54:34;;;;;;;;;;;17.10;40.40;;;;;;5065909;28;43581;-74
2022/01/24 14:57:02;;;;;;;;;;;17.20;40.50;;;;;;5066545;28;42830;-74
2022/01/24 14:59:28;;;;;;;;;;;17.20;40.60;;;;;;5066145;28;42918;-73
2022/01/24 15:01:54;;;;;;;;;;;17.20;40.70;;;;;;5066606;28;42982;-73
2022/01/24 15:04:20;;;;;;;;;;;17.20;40.70;;;;;;5066325;28;42858;-74
2022/01/24 15:06:46;;;;;;;;;;;17.20;40.90;;;;;;5066629;28;42932;-73
2022/01/24 15:09:14;;;;;;;;;;;17.20;40.90;;;;;;5064372;28;44554;-74
2022/01/24 15:11:41;;;;;;;;;;;17.20;40.90;;;;;;5066275;28;42990;-73
2022/01/24 15:14:14;;;;;;;;;;;17.30;41.00;;;;;;5065217;28;42984;-73
2022/01/24 15:27:12;;;;;;;;;;;17.30;41.30;;;;;;5071311;28;43067;-74
2022/01/24 15:29:37;;;;;;;;;;;17.30;41.30;;;;;;5072338;28;43860;-73
2022/01/24 15:32:05;;;;;;;;;;;17.30;41.50;;;;;;5077883;28;43088;-71
2022/01/24 15:34:32;;;;;;;;;;;17.30;41.50;;;;;;5069267;28;43727;-73
2022/01/24 15:36:57;;;;;;;;;;;17.30;41.50;;;;;;5070182;28;43234;-73
2022/01/24 15:39:24;;;;;;;;;;;17.30;41.60;;;;;;5069075;28;44881;-74
2022/01/24 15:41:55;;;;;;;;;;;17.30;41.60;;;;;;5069272;28;43009;-75
2022/01/24 15:47:01;;;;;;;;;;;17.40;41.70;;;;;;5069237;28;42939;-73
2022/01/24 15:49:27;;;;;;;;;;;17.40;41.70;;;;;;5070770;28;42832;-72
2022/01/24 15:51:53;;;;;;;;;;;17.40;41.80;;;;;;5068263;28;42907;-73
2022/01/24 15:54:21;;;;;;;;;;;17.30;41.80;;;;;;5070545;28;43790;-74
2022/01/24 15:59:31;;;;;;;;;;;17.40;41.90;;;;;;5070177;28;42966;-73
2022/01/24 16:01:57;;;;;;;;;;;17.40;42.00;;;;;;5070098;28;42863;-74
2022/01/24 16:04:23;;;;;;;;;;;17.40;42.00;;;;;;5069944;28;42991;-73
2022/01/24 16:06:48;;;;;;;;;;;17.40;42.00;;;;;;5070135;28;43046;-74
2022/01/24 16:09:14;;;;;;;;;;;17.40;42.00;;;;;;5070516;28;44038;-74
2022/01/24 16:11:39;;;;;;;;;;;17.40;42.00;;;;;;5068940;28;43184;-75
2022/01/24 16:14:08;;;;;;;;;;;17.40;42.10;;;;;;5068230;28;42949;-74
2022/01/24 16:16:33;;;;;;;;;;;17.40;42.10;;;;;;5069965;28;43130;-75
2022/01/24 16:18:59;;;;;;;;;;;17.40;42.10;;;;;;5068417;28;42932;-73
2022/01/24 16:21:38;;;;;;;;;;;17.40;42.10;;;;;;5067930;28;43068;-74
2022/01/24 16:26:43;;;;;;;;;;;17.40;42.10;;;;;;5067349;28;42946;-74
2022/01/24 16:29:09;;;;;;;;;;;17.40;42.20;;;;;;5068657;28;42947;-74
2022/01/24 16:31:35;;;;;;;;;;;17.40;42.20;;;;;;5067507;28;42886;-73
2022/01/24 16:34:05;;;;;;;;;;;17.40;42.20;;;;;;5066845;28;42841;-74
2022/01/24 16:36:30;;;;;;;;;;;17.40;41.50;;;;;;5068653;28;43253;-74
2022/01/24 16:38:56;;;;;;;;;;;17.40;40.90;;;;;;5069204;28;42851;-74